createdAt,value
2023-05-06T00:01:58.017Z,10.76
2023-05-06T00:04:24.771Z,10.82
2023-05-06T00:06:51.627Z,10.77
2023-05-06T00:09:18.262Z,10.36
2023-05-06T00:11:46.009Z,10.70
2023-05-06T00:14:12.699Z,10.88
2023-05-06T00:16:39.342Z,10.49
2023-05-06T00:19:06.393Z,10.71
2023-05-06T00:21:33.156Z,10.77
2023-05-06T00:23:59.728Z,10.73
2023-05-06T00:26:26.325Z,10.72
2023-05-06T00:28:52.865Z,10.44
2023-05-06T00:31:19.479Z,10.35
2023-05-06T00:33:46.072Z,10.36
2023-05-06T00:36:12.728Z,10.39
2023-05-06T00:38:39.300Z,10.51
2023-05-06T00:41:05.954Z,10.75
2023-05-06T00:43:32.548Z,10.88
2023-05-06T00:45:59.349Z,10.79
2023-05-06T00:48:26.183Z,10.89
2023-05-06T00:50:53.229Z,10.46
2023-05-06T00:53:23.762Z,10.89
2023-05-06T00:55:51.437Z,10.73
2023-05-06T00:58:39.424Z,10.70
2023-05-06T01:01:06.217Z,10.75
2023-05-06T01:03:33.217Z,10.80
2023-05-06T01:06:22.851Z,10.92
2023-05-06T01:09:06.162Z,10.81
2023-05-06T01:11:41.338Z,10.84
2023-05-06T01:14:17.435Z,10.81
2023-05-06T01:16:48.197Z,10.79
2023-05-06T01:19:27.852Z,10.93
2023-05-06T01:21:56.473Z,10.59
2023-05-06T01:24:34.846Z,10.77
2023-05-06T01:27:01.617Z,10.46
2023-05-06T01:29:28.359Z,10.88
2023-05-06T01:31:59.877Z,10.75
2023-05-06T01:35:15.675Z,10.95
2023-05-06T01:37:52.762Z,10.89
2023-05-06T01:40:20.478Z,10.74
2023-05-06T01:42:51.533Z,10.66
2023-05-06T01:45:21.282Z,10.77
2023-05-06T01:47:48.479Z,10.75
2023-05-06T01:50:15.560Z,10.71
2023-05-06T01:52:42.208Z,10.85
2023-05-06T01:55:09.491Z,10.81
2023-05-06T01:57:36.504Z,10.57
2023-05-06T02:00:03.259Z,10.76
2023-05-06T02:02:29.931Z,10.74
2023-05-06T02:04:56.574Z,10.77
2023-05-06T02:07:23.198Z,10.95
2023-05-06T02:09:49.784Z,10.88
2023-05-06T02:12:16.372Z,10.72
2023-05-06T02:14:42.973Z,10.81
2023-05-06T02:17:09.621Z,10.82
2023-05-06T02:19:36.399Z,10.65
2023-05-06T02:22:02.951Z,10.70
2023-05-06T02:24:29.514Z,10.75
2023-05-06T02:26:56.394Z,10.77
2023-05-06T02:29:22.941Z,10.75
2023-05-06T02:31:49.594Z,10.59
2023-05-06T02:34:16.519Z,10.77
2023-05-06T02:36:43.084Z,10.74
2023-05-06T02:39:09.729Z,10.74
2023-05-06T02:41:36.269Z,10.63
2023-05-06T02:44:02.947Z,10.60
2023-05-06T02:46:29.518Z,10.77
2023-05-06T02:48:56.120Z,10.86
2023-05-06T02:51:22.767Z,10.89
2023-05-06T02:53:49.339Z,10.80
2023-05-06T02:56:15.923Z,10.59
2023-05-06T02:58:42.489Z,10.70
2023-05-06T03:01:09.407Z,10.77
2023-05-06T03:03:36.184Z,10.70
2023-05-06T03:06:02.809Z,10.83
2023-05-06T03:08:29.376Z,10.59
2023-05-06T03:10:55.950Z,10.65
2023-05-06T03:13:22.674Z,10.63
2023-05-06T03:15:55.122Z,10.84
2023-05-06T03:18:21.692Z,10.80
2023-05-06T03:20:49.107Z,10.46
2023-05-06T03:23:15.796Z,10.66
2023-05-06T03:25:42.528Z,10.82
2023-05-06T03:28:09.050Z,10.80
2023-05-06T03:30:35.836Z,10.30
2023-05-06T03:33:02.585Z,10.54
2023-05-06T03:35:29.522Z,10.78
2023-05-06T03:37:56.045Z,10.76
2023-05-06T03:40:22.753Z,10.75
2023-05-06T03:42:49.344Z,10.82
2023-05-06T03:45:15.946Z,10.80
2023-05-06T03:47:42.542Z,10.78
2023-05-06T03:50:09.768Z,10.74
2023-05-06T03:52:36.600Z,10.69
2023-05-06T03:55:03.460Z,10.73
2023-05-06T03:57:30.042Z,10.55
2023-05-06T03:59:56.603Z,10.63
2023-05-06T04:02:24.302Z,10.61
2023-05-06T04:04:50.965Z,10.75
2023-05-06T04:07:17.507Z,10.68
2023-05-06T04:09:44.044Z,10.72
2023-05-06T04:12:10.914Z,10.58
2023-05-06T04:14:37.501Z,10.45
2023-05-06T04:17:04.180Z,10.68
2023-05-06T04:19:32.259Z,10.74
2023-05-06T04:21:59.142Z,10.54
2023-05-06T04:24:28.457Z,10.69
2023-05-06T04:26:55.933Z,10.69
2023-05-06T04:29:22.770Z,10.67
2023-05-06T04:31:49.426Z,10.60
2023-05-06T04:34:16.741Z,10.63
2023-05-06T04:36:43.526Z,10.71
2023-05-06T04:39:10.739Z,10.78
2023-05-06T04:41:37.888Z,10.70
2023-05-06T04:44:04.942Z,10.80
2023-05-06T04:46:31.643Z,10.75
2023-05-06T04:48:58.453Z,10.66
2023-05-06T04:51:25.324Z,10.83
2023-05-06T04:53:52.763Z,10.81
2023-05-06T04:56:19.416Z,10.27
2023-05-06T04:58:45.953Z,10.75
2023-05-06T05:01:12.668Z,10.78
2023-05-06T05:03:39.336Z,10.84
2023-05-06T05:06:06.201Z,10.88
2023-05-06T05:08:32.900Z,10.86
2023-05-06T05:10:59.511Z,10.96
2023-05-06T05:13:26.215Z,10.93
2023-05-06T05:15:56.076Z,11.09
2023-05-06T05:18:23.094Z,10.98
2023-05-06T05:20:49.875Z,10.86
2023-05-06T05:23:16.430Z,11.09
2023-05-06T05:25:43.117Z,11.11
2023-05-06T05:28:09.663Z,10.96
2023-05-06T05:30:36.257Z,10.88
2023-05-06T05:33:02.956Z,10.94
2023-05-06T05:35:29.611Z,10.96
2023-05-06T05:37:56.173Z,11.12
2023-05-06T05:40:22.803Z,10.13
2023-05-06T05:42:49.334Z,11.09
2023-05-06T05:45:15.989Z,11.09
2023-05-06T05:47:42.684Z,10.95
2023-05-06T05:50:09.398Z,10.90
2023-05-06T05:52:36.013Z,10.89
2023-05-06T05:55:02.683Z,10.63
2023-05-06T05:57:29.216Z,10.90
2023-05-06T05:59:55.854Z,11.00
2023-05-06T06:02:22.508Z,11.06
2023-05-06T06:04:49.171Z,10.97
2023-05-06T06:07:16.023Z,10.87
2023-05-06T06:09:42.616Z,10.88
2023-05-06T06:12:09.153Z,10.83
2023-05-06T06:14:35.723Z,10.68
2023-05-06T06:17:02.387Z,11.11
2023-05-06T06:19:28.958Z,11.19
2023-05-06T06:21:56.241Z,10.71
2023-05-06T06:24:22.902Z,11.09
2023-05-06T06:26:49.553Z,11.09
2023-05-06T06:29:16.217Z,11.18
2023-05-06T06:31:42.853Z,11.09
2023-05-06T06:34:09.924Z,11.28
2023-05-06T06:36:36.494Z,11.29
2023-05-06T06:39:03.388Z,11.33
2023-05-06T06:41:29.996Z,11.35
2023-05-06T06:43:56.567Z,11.18
2023-05-06T06:46:23.836Z,11.54
2023-05-06T06:48:50.811Z,11.47
2023-05-06T06:51:17.424Z,11.59
2023-05-06T06:53:44.223Z,11.46
2023-05-06T06:56:12.524Z,11.85
2023-05-06T06:58:39.396Z,11.58
2023-05-06T07:01:06.167Z,11.26
2023-05-06T07:03:32.813Z,11.60
2023-05-06T07:05:59.439Z,11.54
2023-05-06T07:08:26.004Z,11.63
2023-05-06T07:10:52.626Z,11.45
2023-05-06T07:13:20.875Z,11.56
2023-05-06T07:15:47.496Z,11.95
2023-05-06T07:18:14.102Z,11.92
2023-05-06T07:20:40.865Z,12.01
2023-05-06T07:23:07.461Z,12.09
2023-05-06T07:25:36.867Z,12.12
2023-05-06T07:28:03.646Z,12.08
2023-05-06T07:30:30.271Z,12.24
2023-05-06T07:32:57.139Z,11.88
2023-05-06T07:35:23.729Z,11.92
2023-05-06T07:37:50.422Z,11.93
2023-05-06T07:40:17.156Z,12.08
2023-05-06T07:42:43.772Z,11.94
2023-05-06T07:45:11.431Z,12.11
2023-05-06T07:47:38.361Z,12.24
2023-05-06T07:50:07.010Z,12.40
2023-05-06T07:52:34.047Z,12.17
2023-05-06T07:55:00.730Z,12.09
2023-05-06T07:57:27.441Z,12.40
2023-05-06T07:59:54.513Z,12.10
2023-05-06T08:02:21.236Z,12.35
2023-05-06T08:04:49.472Z,12.11
2023-05-06T08:07:17.825Z,12.30
2023-05-06T08:09:44.458Z,12.24
2023-05-06T08:12:11.142Z,12.41
2023-05-06T08:14:37.721Z,12.25
2023-05-06T08:17:04.506Z,12.34
2023-05-06T08:19:31.199Z,12.59
2023-05-06T08:21:57.822Z,12.22
2023-05-06T08:24:24.707Z,12.59
2023-05-06T08:26:51.515Z,12.60
2023-05-06T08:29:18.862Z,12.47
2023-05-06T08:31:45.706Z,12.36
2023-05-06T08:34:12.275Z,12.23
2023-05-06T08:36:39.441Z,12.69
2023-05-06T08:39:06.217Z,12.61
2023-05-06T08:41:35.907Z,12.86
2023-05-06T08:44:04.002Z,12.70
2023-05-06T08:46:31.277Z,12.63
2023-05-06T08:49:00.774Z,12.82
2023-05-06T08:51:31.772Z,13.06
2023-05-06T08:54:02.346Z,13.00
2023-05-06T08:56:30.668Z,12.72
2023-05-06T08:58:58.661Z,13.14
2023-05-06T09:01:29.346Z,12.84
2023-05-06T09:03:58.170Z,13.06
2023-05-06T09:06:25.315Z,13.15
2023-05-06T09:08:52.000Z,12.97
2023-05-06T09:11:23.176Z,13.39
2023-05-06T09:13:51.340Z,13.36
2023-05-06T09:16:30.919Z,13.35
2023-05-06T09:18:58.716Z,13.19
2023-05-06T09:21:39.277Z,13.59
2023-05-06T09:24:07.512Z,13.57
2023-05-06T09:26:36.189Z,13.41
2023-05-06T09:29:03.682Z,13.49
2023-05-06T09:31:30.400Z,13.53
2023-05-06T09:33:59.260Z,13.65
2023-05-06T09:36:28.061Z,13.78
2023-05-06T09:38:56.163Z,14.04
2023-05-06T09:41:25.454Z,14.20
2023-05-06T09:43:53.555Z,14.53
2023-05-06T09:46:22.318Z,14.41
2023-05-06T09:48:53.061Z,14.44
2023-05-06T09:51:20.457Z,14.31
2023-05-06T09:53:47.771Z,14.33
2023-05-06T09:56:15.790Z,14.51
2023-05-06T09:58:43.328Z,14.19
2023-05-06T10:01:19.250Z,14.40
2023-05-06T10:03:53.733Z,14.20
2023-05-06T10:06:23.307Z,13.84
2023-05-06T10:08:51.101Z,13.77
2023-05-06T10:11:19.194Z,13.90
2023-05-06T10:13:50.129Z,13.93
2023-05-06T10:16:18.855Z,14.12
2023-05-06T10:18:47.034Z,13.81
2023-05-06T10:21:22.286Z,14.05
2023-05-06T10:23:57.328Z,13.85
2023-05-06T10:26:27.515Z,14.33
2023-05-06T10:28:55.121Z,13.92
2023-05-06T10:31:21.725Z,14.12
2023-05-06T10:33:51.680Z,14.22
2023-05-06T10:36:27.913Z,14.31
2023-05-06T10:39:00.567Z,13.76
2023-05-06T10:41:28.452Z,13.83
2023-05-06T10:43:57.185Z,14.29
2023-05-06T10:46:26.433Z,14.14
2023-05-06T10:49:05.059Z,14.16
2023-05-06T10:51:32.646Z,13.60
2023-05-06T10:54:06.833Z,13.48
2023-05-06T10:56:33.465Z,13.77
2023-05-06T10:59:10.724Z,14.12
2023-05-06T11:01:42.887Z,13.99
2023-05-06T11:04:11.634Z,13.82
2023-05-06T11:06:44.772Z,13.94
2023-05-06T11:09:18.959Z,13.78
2023-05-06T11:12:03.033Z,13.95
2023-05-06T11:14:36.938Z,13.92
2023-05-06T11:17:10.086Z,13.71
2023-05-06T11:19:38.569Z,13.68
2023-05-06T11:22:07.338Z,13.94
2023-05-06T11:24:41.872Z,13.93
2023-05-06T11:27:09.879Z,13.92
2023-05-06T11:29:37.277Z,13.95
2023-05-06T11:32:06.214Z,13.95
2023-05-06T11:34:33.293Z,13.78
2023-05-06T11:37:07.982Z,14.11
2023-05-06T11:39:40.495Z,14.19
2023-05-06T11:42:08.891Z,14.24
2023-05-06T11:44:39.635Z,14.39
2023-05-06T11:47:09.603Z,14.38
2023-05-06T11:49:43.341Z,14.22
2023-05-06T11:52:11.314Z,14.32
2023-05-06T11:54:42.528Z,14.44
2023-05-06T11:57:10.030Z,14.49
2023-05-06T11:59:38.486Z,13.86
2023-05-06T12:02:09.627Z,13.73
2023-05-06T12:04:47.159Z,13.77
2023-05-06T12:07:16.112Z,13.68
2023-05-06T12:09:46.565Z,13.80
2023-05-06T12:12:17.627Z,13.68
2023-05-06T12:14:46.523Z,12.79
2023-05-06T12:17:13.802Z,13.65
2023-05-06T12:19:40.699Z,13.91
2023-05-06T12:22:21.440Z,14.03
2023-05-06T12:24:48.903Z,14.07
2023-05-06T12:27:28.924Z,14.24
2023-05-06T12:29:55.597Z,14.40
2023-05-06T12:32:23.527Z,13.83
2023-05-06T12:34:50.181Z,14.67
2023-05-06T12:37:28.661Z,14.38
2023-05-06T12:39:59.216Z,14.81
2023-05-06T12:42:26.822Z,15.02
2023-05-06T12:44:53.733Z,14.98
2023-05-06T12:47:22.135Z,15.03
2023-05-06T12:49:50.038Z,14.67
2023-05-06T12:52:18.043Z,14.91
2023-05-06T12:54:44.914Z,14.84
2023-05-06T12:57:11.796Z,14.64
2023-05-06T12:59:38.645Z,14.50
2023-05-06T13:02:06.332Z,14.63
2023-05-06T13:04:33.003Z,14.70
2023-05-06T13:06:59.719Z,14.61
2023-05-06T13:09:26.403Z,14.67
2023-05-06T13:11:56.357Z,15.12
2023-05-06T13:14:23.166Z,14.91
2023-05-06T13:16:50.175Z,14.81
2023-05-06T13:21:46.869Z,14.62
2023-05-06T13:24:13.504Z,14.66
2023-05-06T13:26:40.261Z,14.40
2023-05-06T13:29:07.195Z,14.45
2023-05-06T13:31:34.982Z,14.50
2023-05-06T13:34:01.714Z,14.36
2023-05-06T13:36:28.419Z,13.78
2023-05-06T13:38:54.979Z,14.21
2023-05-06T13:41:23.148Z,14.35
2023-05-06T13:43:49.685Z,14.27
2023-05-06T13:46:16.436Z,14.12
2023-05-06T13:48:43.201Z,14.08
2023-05-06T13:51:09.814Z,14.05
2023-05-06T13:53:36.712Z,13.94
2023-05-06T13:56:03.519Z,14.02
2023-05-06T13:58:30.124Z,13.88
2023-05-06T14:00:56.746Z,13.85
2023-05-06T14:03:23.344Z,13.69
2023-05-06T14:05:50.057Z,13.57
2023-05-06T14:08:16.718Z,13.80
2023-05-06T14:10:43.403Z,13.86
2023-05-06T14:13:10.034Z,13.57
2023-05-06T14:15:36.806Z,13.74
2023-05-06T14:18:04.378Z,13.61
2023-05-06T14:20:31.267Z,13.65
2023-05-06T14:22:57.893Z,13.59
2023-05-06T14:25:27.726Z,13.38
2023-05-06T14:27:55.304Z,13.56
2023-05-06T14:30:22.541Z,13.67
2023-05-06T14:32:49.437Z,13.85
2023-05-06T14:35:16.078Z,13.36
2023-05-06T14:37:42.666Z,13.68
2023-05-06T14:40:10.251Z,13.70
2023-05-06T14:42:37.237Z,13.28
2023-05-06T14:45:04.251Z,13.50
2023-05-06T14:47:31.278Z,13.21
2023-05-06T14:49:58.149Z,13.08
2023-05-06T14:52:24.780Z,13.35
2023-05-06T14:54:51.329Z,13.50
2023-05-06T14:57:17.951Z,13.72
2023-05-06T14:59:44.527Z,13.78
2023-05-06T15:02:11.354Z,13.79
2023-05-06T15:04:37.900Z,13.68
2023-05-06T15:07:04.647Z,13.71
2023-05-06T15:09:31.342Z,13.67
2023-05-06T15:11:58.276Z,13.77
2023-05-06T15:14:24.889Z,13.70
2023-05-06T15:16:56.612Z,13.51
2023-05-06T15:19:23.456Z,13.51
2023-05-06T15:21:50.533Z,13.57
2023-05-06T15:24:17.406Z,13.53
2023-05-06T15:26:43.977Z,13.21
2023-05-06T15:29:10.746Z,13.05
2023-05-06T15:31:41.098Z,13.15
2023-05-06T15:34:10.064Z,13.17
2023-05-06T15:36:37.363Z,13.23
2023-05-06T15:39:04.298Z,13.19
2023-05-06T15:41:32.832Z,13.24
2023-05-06T15:44:01.350Z,13.09
2023-05-06T15:46:29.524Z,13.06
2023-05-06T15:49:12.810Z,13.23
2023-05-06T15:51:43.777Z,13.06
2023-05-06T15:54:10.447Z,13.22
2023-05-06T15:56:40.966Z,13.08
2023-05-06T15:59:08.501Z,13.25
2023-05-06T16:02:04.844Z,13.10
2023-05-06T16:04:22.045Z,13.02
2023-05-06T16:06:49.138Z,13.05
2023-05-06T16:09:15.815Z,13.12
2023-05-06T16:11:42.447Z,13.21
2023-05-06T16:14:09.021Z,13.01
2023-05-06T16:16:35.947Z,12.85
2023-05-06T16:19:02.688Z,12.81
2023-05-06T16:21:29.546Z,12.97
2023-05-06T16:23:56.150Z,12.97
2023-05-06T16:26:23.093Z,12.75
2023-05-06T16:28:49.696Z,12.92
2023-05-06T16:31:16.407Z,12.88
2023-05-06T16:33:43.104Z,12.88
2023-05-06T16:36:09.756Z,12.47
2023-05-06T16:38:36.875Z,12.87
2023-05-06T16:41:03.584Z,12.53
2023-05-06T16:43:30.361Z,12.79
2023-05-06T16:46:00.564Z,12.52
2023-05-06T16:48:27.298Z,12.97
2023-05-06T16:50:54.180Z,12.91
2023-05-06T16:53:21.018Z,12.79
2023-05-06T16:55:49.111Z,12.91
2023-05-06T16:58:16.175Z,12.58
2023-05-06T17:00:42.967Z,12.70
2023-05-06T17:03:09.995Z,12.88
2023-05-06T17:05:37.114Z,12.69
2023-05-06T17:08:04.092Z,12.70
2023-05-06T17:10:30.911Z,12.33
2023-05-06T17:12:58.197Z,12.71
2023-05-06T17:15:25.293Z,12.62
2023-05-06T17:17:52.330Z,12.41
2023-05-06T17:20:23.085Z,12.74
2023-05-06T17:22:50.086Z,12.67
2023-05-06T17:25:16.896Z,12.64
2023-05-06T17:27:44.625Z,12.52
2023-05-06T17:30:11.982Z,12.50
2023-05-06T17:32:39.106Z,12.56
2023-05-06T17:35:06.706Z,11.94
2023-05-06T17:37:34.287Z,12.22
2023-05-06T17:40:00.950Z,12.52
2023-05-06T17:42:27.908Z,12.46
2023-05-06T17:44:54.818Z,12.41
2023-05-06T17:47:24.597Z,12.21
2023-05-06T17:49:54.140Z,12.18
2023-05-06T17:52:21.181Z,12.38
2023-05-06T17:55:01.440Z,12.29
2023-05-06T17:57:37.645Z,11.46
2023-05-06T18:00:05.158Z,12.00
2023-05-06T18:02:31.822Z,12.11
2023-05-06T18:04:58.548Z,12.14
2023-05-06T18:07:25.100Z,12.15
2023-05-06T18:09:52.351Z,11.73
2023-05-06T18:12:19.764Z,12.13
2023-05-06T18:14:47.051Z,12.22
2023-05-06T18:17:13.852Z,11.97
2023-05-06T18:19:40.608Z,12.18
2023-05-06T18:22:07.261Z,12.17
2023-05-06T18:24:34.847Z,12.11
2023-05-06T18:27:02.418Z,11.82
2023-05-06T18:29:30.488Z,12.14
2023-05-06T18:31:57.390Z,12.05
2023-05-06T18:34:24.029Z,11.97
2023-05-06T18:36:50.761Z,11.99
2023-05-06T18:39:17.382Z,11.94
2023-05-06T18:41:44.619Z,11.98
2023-05-06T18:44:11.944Z,11.98
2023-05-06T18:46:38.552Z,11.88
2023-05-06T18:49:05.446Z,11.96
2023-05-06T18:51:32.248Z,11.91
2023-05-06T18:53:58.889Z,11.71
2023-05-06T18:56:25.566Z,11.88
2023-05-06T18:58:52.463Z,11.68
2023-05-06T19:01:19.133Z,11.77
2023-05-06T19:03:45.934Z,11.95
2023-05-06T19:06:12.673Z,11.99
2023-05-06T19:08:39.425Z,11.73
2023-05-06T19:11:06.052Z,11.82
2023-05-06T19:13:32.693Z,11.76
2023-05-06T19:15:59.343Z,11.85
2023-05-06T19:18:25.973Z,11.92
2023-05-06T19:20:53.417Z,11.92
2023-05-06T19:23:20.323Z,11.88
2023-05-06T19:25:47.872Z,11.92
2023-05-06T19:28:14.895Z,11.71
2023-05-06T19:30:41.612Z,11.92
2023-05-06T19:33:08.299Z,11.71
2023-05-06T19:35:38.776Z,11.69
2023-05-06T19:38:09.223Z,11.41
2023-05-06T19:40:36.038Z,11.63
2023-05-06T19:43:04.092Z,11.55
2023-05-06T19:45:34.632Z,11.55
2023-05-06T19:48:04.245Z,11.52
2023-05-06T19:50:33.217Z,11.42
2023-05-06T19:52:59.854Z,11.46
2023-05-06T19:55:26.856Z,11.74
2023-05-06T19:57:56.167Z,11.79
2023-05-06T20:00:24.878Z,11.65
2023-05-06T20:02:51.596Z,11.57
2023-05-06T20:05:18.231Z,11.65
2023-05-06T20:07:44.920Z,11.39
2023-05-06T20:10:13.687Z,11.74
2023-05-06T20:12:43.586Z,11.70
2023-05-06T20:15:10.719Z,11.74
2023-05-06T20:17:37.499Z,11.73
2023-05-06T20:20:09.810Z,11.41
2023-05-06T20:22:40.668Z,11.76
2023-05-06T20:25:18.989Z,11.34
2023-05-06T20:27:46.014Z,11.62
2023-05-06T20:30:12.973Z,11.57
2023-05-06T20:32:40.772Z,11.48
2023-05-06T20:35:08.225Z,11.36
2023-05-06T20:37:36.498Z,11.63
2023-05-06T20:40:08.066Z,11.44
2023-05-06T20:42:34.775Z,11.67
2023-05-06T20:45:01.671Z,11.66
2023-05-06T20:47:28.278Z,11.36
2023-05-06T20:49:55.176Z,11.66
2023-05-06T20:52:21.960Z,11.26
2023-05-06T20:54:48.958Z,11.58
2023-05-06T20:57:16.764Z,11.29
2023-05-06T20:59:43.464Z,11.57
2023-05-06T21:02:10.723Z,11.67
2023-05-06T21:04:37.465Z,11.76
2023-05-06T21:07:04.105Z,11.31
2023-05-06T21:09:30.767Z,11.69
2023-05-06T21:11:58.542Z,11.35
2023-05-06T21:14:27.010Z,11.62
2023-05-06T21:16:53.770Z,11.41
2023-05-06T21:19:20.818Z,11.50
2023-05-06T21:21:47.560Z,11.38
2023-05-06T21:24:14.368Z,11.62
2023-05-06T21:26:40.975Z,11.22
2023-05-06T21:29:07.526Z,11.60
2023-05-06T21:31:34.270Z,11.52
2023-05-06T21:34:00.967Z,11.62
2023-05-06T21:36:27.604Z,11.64
2023-05-06T21:39:08.691Z,11.73
2023-05-06T21:41:36.262Z,11.32
2023-05-06T21:44:04.264Z,11.52
2023-05-06T21:46:31.696Z,11.56
2023-05-06T21:48:59.680Z,11.52
2023-05-06T21:51:34.891Z,11.48
2023-05-06T21:54:02.295Z,11.42
2023-05-06T21:56:29.422Z,11.62
2023-05-06T21:58:56.333Z,11.70
2023-05-06T22:01:26.410Z,11.43
2023-05-06T22:03:54.113Z,11.59
2023-05-06T22:06:21.266Z,11.33
2023-05-06T22:08:48.051Z,11.58
2023-05-06T22:11:14.750Z,11.29
2023-05-06T22:13:41.529Z,11.18
2023-05-06T22:16:08.346Z,11.69
2023-05-06T22:18:36.138Z,11.61
2023-05-06T22:21:03.450Z,11.60
2023-05-06T22:23:30.095Z,11.63
2023-05-06T22:25:58.436Z,11.48
2023-05-06T22:28:25.819Z,11.52
2023-05-06T22:30:52.364Z,11.50
2023-05-06T22:33:19.011Z,11.60
2023-05-06T22:35:45.589Z,11.59
2023-05-06T22:38:12.192Z,11.59
2023-05-06T22:40:38.809Z,11.49
2023-05-06T22:43:05.339Z,11.55
2023-05-06T22:45:32.044Z,11.18
2023-05-06T22:47:58.763Z,11.41
2023-05-06T22:50:25.610Z,11.17
2023-05-06T22:52:52.259Z,11.43
2023-05-06T22:55:18.910Z,11.38
2023-05-06T22:57:47.197Z,11.29
2023-05-06T23:00:13.849Z,11.38
2023-05-06T23:02:40.541Z,11.30
2023-05-06T23:05:07.447Z,11.20
2023-05-06T23:07:34.111Z,11.31
2023-05-06T23:10:01.007Z,11.39
2023-05-06T23:12:32.090Z,11.19
2023-05-06T23:14:58.621Z,10.93
2023-05-06T23:17:25.774Z,11.30
2023-05-06T23:19:52.428Z,11.20
2023-05-06T23:22:19.104Z,11.20
2023-05-06T23:24:46.070Z,11.35
2023-05-06T23:27:12.681Z,11.15
2023-05-06T23:29:42.072Z,11.11
2023-05-06T23:32:09.082Z,11.01
2023-05-06T23:34:35.744Z,11.05
2023-05-06T23:37:02.360Z,11.17
2023-05-06T23:39:28.952Z,11.02
2023-05-06T23:41:55.556Z,11.20
2023-05-06T23:44:23.086Z,11.08
2023-05-06T23:46:49.760Z,11.14
2023-05-06T23:49:16.640Z,11.19
2023-05-06T23:51:43.209Z,11.05
2023-05-06T23:54:09.776Z,11.10
2023-05-06T23:56:36.403Z,11.00
2023-05-06T23:59:03.063Z,10.95
